createdAt,value
2016-09-25T00:00:40.518Z,0
2016-09-25T00:01:50.828Z,0
2016-09-25T00:03:00.826Z,0
2016-09-25T00:04:11.119Z,0
2016-09-25T00:05:21.089Z,0
2016-09-25T00:06:31.392Z,0
2016-09-25T00:07:41.364Z,0
2016-09-25T00:08:51.350Z,0
2016-09-25T00:10:01.634Z,0
2016-09-25T00:11:11.919Z,0
2016-09-25T00:12:22.200Z,0
2016-09-25T00:13:32.471Z,0
2016-09-25T00:14:42.783Z,0
2016-09-25T00:15:53.076Z,0
2016-09-25T00:17:03.367Z,0
2016-09-25T00:18:13.659Z,0
2016-09-25T00:19:24.000Z,0
2016-09-25T00:20:33.982Z,0
2016-09-25T00:21:43.959Z,0
2016-09-25T00:22:54.251Z,0
2016-09-25T00:24:04.523Z,0
2016-09-25T00:25:14.810Z,0
2016-09-25T00:26:25.172Z,0
2016-09-25T00:27:35.487Z,0
2016-09-25T00:28:45.489Z,0
2016-09-25T00:29:55.160Z,0
2016-09-25T00:31:05.157Z,0
2016-09-25T00:32:15.435Z,0
2016-09-25T00:33:25.407Z,0
2016-09-25T00:34:35.694Z,0
2016-09-25T00:35:45.986Z,0
2016-09-25T00:36:56.286Z,0
2016-09-25T00:38:05.962Z,0
2016-09-25T00:39:16.265Z,0
2016-09-25T00:40:26.556Z,0
2016-09-25T00:41:36.523Z,0
2016-09-25T00:42:46.489Z,0
2016-09-25T00:43:56.774Z,0
2016-09-25T00:45:07.084Z,0
2016-09-25T00:46:17.054Z,0
2016-09-25T00:47:27.109Z,0
2016-09-25T00:48:36.772Z,0
2016-09-25T00:49:47.054Z,0
2016-09-25T00:50:57.348Z,0
2016-09-25T00:52:07.336Z,0
2016-09-25T00:53:17.638Z,0
2016-09-25T00:54:27.322Z,0
2016-09-25T00:55:37.643Z,0
2016-09-25T00:56:47.630Z,0
2016-09-25T00:57:57.920Z,0
2016-09-25T00:59:07.937Z,0
2016-09-25T01:00:18.248Z,0
2016-09-25T01:01:28.545Z,0
2016-09-25T01:02:38.542Z,0
2016-09-25T01:03:48.832Z,0
2016-09-25T01:04:59.130Z,0
2016-09-25T01:06:09.424Z,0
2016-09-25T01:07:19.709Z,0
2016-09-25T01:08:30.011Z,0
2016-09-25T01:09:40.313Z,0
2016-09-25T01:10:49.979Z,0
2016-09-25T01:11:59.952Z,0
2016-09-25T01:13:09.628Z,0
2016-09-25T01:14:19.609Z,0
2016-09-25T01:15:29.585Z,0
2016-09-25T01:16:39.565Z,0
2016-09-25T01:17:49.845Z,0
2016-09-25T01:19:00.118Z,0
2016-09-25T01:20:10.413Z,0
2016-09-25T01:21:20.708Z,0
2016-09-25T01:22:30.697Z,0
2016-09-25T01:23:40.983Z,0
2016-09-25T01:24:51.259Z,0
2016-09-25T01:26:01.230Z,0
2016-09-25T01:27:11.537Z,0
2016-09-25T01:28:21.536Z,0
2016-09-25T01:29:31.813Z,0
2016-09-25T01:30:42.100Z,0
2016-09-25T01:31:51.775Z,0
2016-09-25T01:33:01.779Z,0
2016-09-25T01:34:11.442Z,0
2016-09-25T01:35:21.731Z,0
2016-09-25T01:36:32.025Z,0
2016-09-25T01:37:42.528Z,0
2016-09-25T01:38:52.497Z,0
2016-09-25T01:40:02.783Z,0
2016-09-25T01:41:12.470Z,0
2016-09-25T01:42:22.138Z,0
2016-09-25T01:43:32.418Z,0
2016-09-25T01:44:42.701Z,0
2016-09-25T01:45:52.364Z,0
2016-09-25T01:47:02.666Z,0
2016-09-25T01:48:12.943Z,0
2016-09-25T01:49:23.237Z,0
2016-09-25T01:50:33.543Z,0
2016-09-25T01:51:43.831Z,0
2016-09-25T01:52:54.124Z,0
2016-09-25T01:54:04.414Z,0
2016-09-25T01:55:14.703Z,0
2016-09-25T01:56:25.003Z,0
2016-09-25T01:57:34.670Z,0
2016-09-25T01:58:45.162Z,0
2016-09-25T01:59:55.136Z,0
2016-09-25T02:01:05.416Z,0
2016-09-25T02:02:15.397Z,0
2016-09-25T02:03:25.682Z,0
2016-09-25T02:04:35.346Z,0
2016-09-25T02:05:45.636Z,0
2016-09-25T02:06:55.619Z,0
2016-09-25T02:08:05.915Z,0
2016-09-25T02:09:16.203Z,0
2016-09-25T02:10:26.493Z,0
2016-09-25T02:11:36.474Z,0
2016-09-25T02:12:46.751Z,0
2016-09-25T02:13:57.045Z,0
2016-09-25T02:15:07.356Z,0
2016-09-25T02:16:17.649Z,0
2016-09-25T02:17:27.941Z,0
2016-09-25T02:18:38.221Z,0
2016-09-25T02:19:48.202Z,0
2016-09-25T02:20:58.173Z,0
2016-09-25T02:22:08.154Z,0
2016-09-25T02:23:18.443Z,0
2016-09-25T02:24:28.734Z,0
2016-09-25T02:25:38.703Z,0
2016-09-25T02:26:48.992Z,0
2016-09-25T02:27:59.271Z,0
2016-09-25T02:29:09.250Z,0
2016-09-25T02:30:18.922Z,0
2016-09-25T02:31:29.197Z,0
2016-09-25T02:32:39.479Z,0
2016-09-25T02:33:49.749Z,0
2016-09-25T02:34:59.415Z,0
2016-09-25T02:36:09.383Z,0
2016-09-25T02:37:19.707Z,0
2016-09-25T02:38:29.989Z,0
2016-09-25T02:39:40.268Z,0
2016-09-25T02:40:50.543Z,0
2016-09-25T02:42:00.515Z,0
2016-09-25T02:43:10.185Z,0
2016-09-25T02:44:20.473Z,0
2016-09-25T02:45:30.435Z,0
2016-09-25T02:46:40.711Z,0
2016-09-25T02:47:50.998Z,0
2016-09-25T02:49:01.278Z,0
2016-09-25T02:50:11.595Z,0
2016-09-25T02:51:21.566Z,0
2016-09-25T02:52:31.845Z,0
2016-09-25T02:53:42.126Z,0
2016-09-25T02:54:51.815Z,0
2016-09-25T02:56:02.101Z,0
2016-09-25T02:57:12.082Z,0
2016-09-25T02:58:22.372Z,0
2016-09-25T02:59:32.653Z,0
2016-09-25T03:00:42.941Z,0
2016-09-25T03:32:49.814Z,0
2016-09-25T03:34:00.137Z,0
2016-09-25T03:35:10.411Z,0
2016-09-25T03:36:20.713Z,0
2016-09-25T03:37:30.992Z,0
2016-09-25T03:38:41.285Z,0
2016-09-25T03:39:51.569Z,0
2016-09-25T03:41:01.879Z,0
2016-09-25T03:42:11.851Z,0
2016-09-25T03:43:22.128Z,0
2016-09-25T03:44:32.414Z,0
2016-09-25T03:45:42.713Z,0
2016-09-25T03:46:52.993Z,0
2016-09-25T03:48:03.263Z,0
2016-09-25T03:49:13.561Z,0
2016-09-25T03:50:23.219Z,0
2016-09-25T03:51:33.194Z,0
2016-09-25T03:52:43.493Z,0
2016-09-25T03:53:53.771Z,0
2016-09-25T03:55:04.060Z,0
2016-09-25T03:56:14.355Z,0
2016-09-25T03:57:24.351Z,0
2016-09-25T03:58:34.638Z,0
2016-09-25T03:59:44.623Z,0
2016-09-25T04:00:54.907Z,0
2016-09-25T04:02:05.214Z,0
2016-09-25T04:03:14.882Z,0
2016-09-25T04:04:25.187Z,0
2016-09-25T04:05:35.476Z,0
2016-09-25T04:06:45.766Z,0
2016-09-25T04:07:56.041Z,0
2016-09-25T04:09:06.354Z,0
2016-09-25T04:10:16.330Z,0
2016-09-25T04:11:26.610Z,0
2016-09-25T04:12:36.293Z,0
2016-09-25T04:13:46.585Z,4
2016-09-25T04:14:56.256Z,4
2016-09-25T04:16:06.225Z,4
2016-09-25T04:17:16.517Z,0
2016-09-25T04:18:26.814Z,4
2016-09-25T04:19:36.480Z,4
2016-09-25T04:20:46.771Z,4
2016-09-25T04:21:57.077Z,4
2016-09-25T04:23:07.369Z,4
2016-09-25T04:24:17.356Z,4
2016-09-25T04:25:27.052Z,8
2016-09-25T04:26:37.337Z,12
2016-09-25T04:27:47.636Z,12
2016-09-25T04:28:57.929Z,16
2016-09-25T04:30:08.216Z,20
2016-09-25T04:31:18.200Z,20
2016-09-25T04:32:28.517Z,28
2016-09-25T04:33:38.494Z,32
2016-09-25T04:34:48.771Z,40
2016-09-25T04:35:58.145Z,44
2016-09-25T04:37:08.455Z,52
2016-09-25T04:38:18.737Z,60
2016-09-25T04:39:29.038Z,68
2016-09-25T04:40:39.316Z,80
2016-09-25T04:41:49.616Z,92
2016-09-25T04:42:59.588Z,104
2016-09-25T04:44:09.581Z,120
2016-09-25T04:45:19.874Z,136
2016-09-25T04:46:30.146Z,156
2016-09-25T04:47:40.436Z,176
2016-09-25T04:48:50.717Z,196
2016-09-25T04:50:00.999Z,220
2016-09-25T04:51:10.977Z,244
2016-09-25T04:52:20.943Z,268
2016-09-25T04:53:31.230Z,300
2016-09-25T04:54:41.211Z,324
2016-09-25T04:55:51.495Z,356
2016-09-25T04:57:01.794Z,388
2016-09-25T04:58:11.806Z,420
2016-09-25T04:59:21.479Z,452
2016-09-25T05:00:31.144Z,488
2016-09-25T05:01:41.126Z,524
2016-09-25T05:02:51.097Z,564
2016-09-25T05:04:01.630Z,612
2016-09-25T05:05:11.916Z,656
2016-09-25T05:06:22.211Z,696
2016-09-25T05:07:32.486Z,736
2016-09-25T05:08:42.781Z,776
2016-09-25T05:09:53.091Z,820
2016-09-25T05:11:02.773Z,864
2016-09-25T05:12:13.094Z,908
2016-09-25T05:13:22.755Z,952
2016-09-25T05:14:31.809Z,996
2016-09-25T05:15:41.481Z,1052
2016-09-25T05:16:51.774Z,1108
2016-09-25T05:18:02.051Z,1160
2016-09-25T05:19:12.038Z,1208
2016-09-25T05:20:22.334Z,1256
2016-09-25T05:21:31.996Z,1312
2016-09-25T05:22:42.272Z,1376
2016-09-25T05:23:51.939Z,1436
2016-09-25T05:25:02.220Z,1500
2016-09-25T05:26:11.879Z,1560
2016-09-25T05:27:22.170Z,1612
2016-09-25T05:28:32.143Z,1672
2016-09-25T05:29:42.452Z,1716
2016-09-25T05:30:52.737Z,1748
2016-09-25T05:32:03.025Z,1788
2016-09-25T05:33:13.324Z,1820
2016-09-25T05:34:23.639Z,1860
2016-09-25T05:35:33.630Z,1888
2016-09-25T05:36:43.907Z,1912
2016-09-25T05:37:54.187Z,1936
2016-09-25T05:39:04.467Z,1964
2016-09-25T05:40:14.138Z,2012
2016-09-25T05:41:24.119Z,2044
2016-09-25T05:42:34.405Z,2072
2016-09-25T05:43:44.404Z,2108
2016-09-25T05:44:54.714Z,2148
2016-09-25T05:46:05.016Z,2192
2016-09-25T05:47:15.303Z,2236
2016-09-25T05:48:25.281Z,2280
2016-09-25T05:49:35.576Z,2336
2016-09-25T05:50:45.871Z,2408
2016-09-25T05:51:55.864Z,2456
2016-09-25T05:53:05.836Z,2484
2016-09-25T05:54:15.794Z,2488
2016-09-25T05:55:25.785Z,2516
2016-09-25T05:56:35.157Z,2512
2016-09-25T05:57:45.453Z,2592
2016-09-25T05:58:55.725Z,2664
2016-09-25T06:00:06.019Z,2704
2016-09-25T06:01:16.315Z,2744
2016-09-25T06:02:26.609Z,2792
2016-09-25T06:03:36.606Z,2840
2016-09-25T06:04:46.603Z,2876
2016-09-25T06:05:56.890Z,2900
2016-09-25T06:07:06.866Z,2896
2016-09-25T06:08:16.869Z,2912
2016-09-25T06:09:26.563Z,2972
2016-09-25T06:10:36.542Z,3032
2016-09-25T06:11:46.857Z,3084
2016-09-25T06:12:57.147Z,3124
2016-09-25T06:14:07.439Z,3160
2016-09-25T06:15:17.734Z,3188
2016-09-25T06:16:27.724Z,3184
2016-09-25T06:17:38.011Z,3200
2016-09-25T06:18:48.285Z,3232
2016-09-25T06:19:58.579Z,3252
2016-09-25T06:21:08.558Z,3292
2016-09-25T06:22:18.849Z,3348
2016-09-25T06:23:28.811Z,3376
2016-09-25T06:24:38.793Z,3376
2016-09-25T06:25:49.092Z,3432
2016-09-25T06:26:59.070Z,3508
2016-09-25T06:28:09.358Z,3536
2016-09-25T06:29:19.674Z,3572
2016-09-25T06:30:29.660Z,3564
2016-09-25T06:31:39.953Z,3600
2016-09-25T06:32:49.925Z,3664
2016-09-25T06:34:00.241Z,3764
2016-09-25T06:35:09.916Z,3728
2016-09-25T06:36:20.215Z,3760
2016-09-25T06:37:30.533Z,3768
2016-09-25T06:38:40.833Z,3832
2016-09-25T06:39:51.124Z,3972
2016-09-25T06:41:01.422Z,4000
2016-09-25T06:42:11.708Z,4076
2016-09-25T06:43:21.985Z,4076
2016-09-25T06:44:31.981Z,4132
2016-09-25T06:45:41.973Z,4132
2016-09-25T06:46:52.272Z,4124
2016-09-25T06:48:02.568Z,4096
2016-09-25T06:49:12.861Z,4252
2016-09-25T06:50:23.146Z,4224
2016-09-25T06:51:33.432Z,4236
2016-09-25T06:52:43.725Z,4244
2016-09-25T06:53:54.010Z,4216
2016-09-25T06:55:04.297Z,4184
2016-09-25T06:56:14.608Z,4300
2016-09-25T06:57:24.585Z,4400
2016-09-25T06:58:34.872Z,4432
2016-09-25T06:59:44.844Z,4480
2016-09-25T07:00:55.141Z,4476
2016-09-25T07:02:05.123Z,4564
2016-09-25T07:03:15.423Z,4624
2016-09-25T07:04:24.786Z,4632
2016-09-25T07:05:35.071Z,4616
2016-09-25T07:06:45.389Z,4512
2016-09-25T07:07:55.669Z,4748
2016-09-25T07:09:05.658Z,4744
2016-09-25T07:10:15.953Z,4792
2016-09-25T07:11:25.936Z,4832
2016-09-25T07:12:35.933Z,4868
2016-09-25T07:13:46.222Z,4940
2016-09-25T07:14:56.520Z,4928
2016-09-25T07:16:06.495Z,4868
2016-09-25T07:17:16.781Z,4900
2016-09-25T07:18:27.083Z,5012
2016-09-25T07:19:37.048Z,5056
2016-09-25T07:20:47.341Z,5036
2016-09-25T07:21:57.635Z,5004
2016-09-25T07:23:07.627Z,5060
2016-09-25T07:24:17.300Z,5168
2016-09-25T07:25:27.272Z,5216
2016-09-25T07:26:37.574Z,5240
2016-09-25T07:27:47.563Z,5316
2016-09-25T07:28:57.848Z,5364
2016-09-25T07:30:07.843Z,5320
2016-09-25T07:31:17.830Z,5344
2016-09-25T07:32:27.844Z,5404
2016-09-25T07:33:38.133Z,5400
2016-09-25T07:34:48.426Z,5656
2016-09-25T07:35:58.720Z,5696
2016-09-25T07:37:09.005Z,5716
2016-09-25T07:38:19.302Z,5768
2016-09-25T07:39:29.597Z,5796
2016-09-25T07:40:39.569Z,5856
2016-09-25T07:41:49.857Z,5920
2016-09-25T07:42:59.827Z,5904
2016-09-25T07:44:10.119Z,5904
2016-09-25T07:45:20.114Z,5920
2016-09-25T07:46:30.404Z,5912
2016-09-25T07:47:40.703Z,5936
2016-09-25T07:48:50.985Z,6000
2016-09-25T07:50:01.257Z,5984
2016-09-25T07:51:11.550Z,5988
2016-09-25T07:52:21.846Z,6016
2016-09-25T07:53:31.818Z,6064
2016-09-25T07:54:42.106Z,6140
2016-09-25T07:55:52.391Z,6192
2016-09-25T07:57:02.070Z,6260
2016-09-25T07:58:12.357Z,6276
2016-09-25T07:59:22.646Z,6252
2016-09-25T08:00:32.978Z,6244
2016-09-25T08:01:42.990Z,6216
2016-09-25T08:02:53.283Z,6216
2016-09-25T08:04:03.563Z,6260
2016-09-25T08:05:13.568Z,6248
2016-09-25T08:06:23.871Z,6356
2016-09-25T08:07:33.545Z,6436
2016-09-25T08:08:43.550Z,6512
2016-09-25T08:09:53.556Z,6552
2016-09-25T08:11:03.857Z,6592
2016-09-25T08:12:14.159Z,6576
2016-09-25T08:13:24.166Z,6592
2016-09-25T08:14:34.153Z,6648
2016-09-25T08:15:44.456Z,6704
2016-09-25T08:16:54.770Z,6764
2016-09-25T08:18:04.753Z,6880
2016-09-25T08:19:15.080Z,6924
2016-09-25T08:20:25.072Z,6952
2016-09-25T08:21:35.363Z,6980
2016-09-25T08:22:45.676Z,6996
2016-09-25T08:23:55.663Z,7012
2016-09-25T08:25:05.969Z,7044
2016-09-25T08:26:15.972Z,7080
2016-09-25T08:27:26.263Z,7100
2016-09-25T08:28:36.257Z,6984
2016-09-25T08:29:46.560Z,7044
2016-09-25T08:30:56.557Z,7032
2016-09-25T08:32:06.871Z,7056
2016-09-25T08:33:17.190Z,7092
2016-09-25T08:34:27.499Z,7056
2016-09-25T08:35:37.499Z,7056
2016-09-25T08:36:47.833Z,7140
2016-09-25T08:37:58.138Z,7024
2016-09-25T08:39:08.140Z,7132
2016-09-25T08:40:18.152Z,7220
2016-09-25T08:41:28.696Z,7240
2016-09-25T08:42:39.032Z,7196
2016-09-25T08:43:49.413Z,7128
2016-09-25T08:44:59.749Z,7120
2016-09-25T08:46:10.044Z,7032
2016-09-25T08:47:20.350Z,7052
2016-09-25T08:48:30.654Z,7020
2016-09-25T08:49:40.650Z,7096
2016-09-25T08:50:50.972Z,7212
2016-09-25T08:52:01.273Z,7316
2016-09-25T08:53:11.575Z,7324
2016-09-25T08:54:21.726Z,7296
2016-09-25T08:55:32.054Z,7256
2016-09-25T08:56:42.376Z,7292
2016-09-25T08:57:52.680Z,7316
2016-09-25T08:59:03.009Z,7320
2016-09-25T09:00:13.311Z,7292
2016-09-25T09:01:23.684Z,7204
2016-09-25T09:02:34.009Z,7432
2016-09-25T09:03:44.043Z,7436
2016-09-25T09:04:54.350Z,7452
2016-09-25T09:06:04.682Z,7384
2016-09-25T09:07:14.690Z,7528
2016-09-25T09:08:24.992Z,7684
2016-09-25T09:09:35.009Z,7596
2016-09-25T09:10:45.302Z,7640
2016-09-25T09:11:55.662Z,7620
2016-09-25T09:13:05.979Z,7536
2016-09-25T09:14:16.279Z,7464
2016-09-25T09:15:26.593Z,7656
2016-09-25T09:16:36.585Z,7556
2016-09-25T09:17:46.256Z,7768
2016-09-25T09:18:56.557Z,7756
2016-09-25T09:20:06.559Z,7768
2016-09-25T09:21:16.247Z,7780
2016-09-25T09:22:26.241Z,7780
2016-09-25T09:23:36.549Z,7844
2016-09-25T09:24:47.091Z,7892
2016-09-25T09:25:57.402Z,7956
2016-09-25T09:27:07.706Z,7976
2016-09-25T09:28:17.387Z,7936
2016-09-25T09:29:27.704Z,7960
2016-09-25T09:30:38.016Z,7904
2016-09-25T09:31:48.322Z,7772
2016-09-25T09:32:58.630Z,7728
2016-09-25T09:34:08.941Z,7840
2016-09-25T09:35:19.251Z,7860
2016-09-25T09:36:29.560Z,7832
2016-09-25T09:37:39.862Z,7772
2016-09-25T09:38:50.173Z,7904
2016-09-25T09:40:00.189Z,8008
2016-09-25T09:41:10.505Z,7968
2016-09-25T09:42:20.205Z,7884
2016-09-25T09:43:30.521Z,7720
2016-09-25T09:44:40.525Z,7888
2016-09-25T09:45:50.843Z,7816
2016-09-25T09:47:01.151Z,7800
2016-09-25T09:48:11.471Z,7716
2016-09-25T09:49:21.461Z,8132
2016-09-25T09:50:31.453Z,8016
2016-09-25T09:51:41.782Z,8240
2016-09-25T09:52:52.110Z,8268
2016-09-25T09:54:02.412Z,8296
2016-09-25T09:55:12.715Z,8292
2016-09-25T09:56:22.699Z,8256
2016-09-25T09:57:32.723Z,8240
2016-09-25T09:58:43.029Z,8216
2016-09-25T09:59:53.009Z,8228
2016-09-25T10:01:03.317Z,8284
2016-09-25T10:02:13.634Z,8264
2016-09-25T10:03:23.633Z,8284
2016-09-25T10:04:33.950Z,8352
2016-09-25T10:05:44.247Z,8392
2016-09-25T10:06:54.557Z,8352
2016-09-25T10:08:04.969Z,8344
2016-09-25T10:09:15.268Z,8352
2016-09-25T10:10:25.595Z,8332
2016-09-25T10:11:35.917Z,8368
2016-09-25T10:12:45.911Z,8432
2016-09-25T10:13:56.239Z,8408
2016-09-25T10:15:06.542Z,8436
2016-09-25T10:16:16.542Z,8416
2016-09-25T10:17:26.848Z,8440
2016-09-25T10:18:37.160Z,8380
2016-09-25T10:19:47.200Z,8328
2016-09-25T10:20:57.513Z,8432
2016-09-25T10:22:07.204Z,8404
2016-09-25T10:23:17.542Z,8480
2016-09-25T10:24:27.247Z,8484
2016-09-25T10:25:37.550Z,8464
2016-09-25T10:26:47.542Z,8412
2016-09-25T10:27:57.869Z,8412
2016-09-25T10:29:07.540Z,8304
2016-09-25T10:30:17.858Z,8392
2016-09-25T10:31:28.203Z,8360
2016-09-25T10:32:38.516Z,8328
2016-09-25T10:33:48.818Z,8420
2016-09-25T10:34:59.126Z,8468
2016-09-25T10:36:09.429Z,8528
2016-09-25T10:37:19.641Z,8480
2016-09-25T10:38:29.934Z,8580
2016-09-25T10:39:40.236Z,8608
2016-09-25T10:40:50.521Z,8596
2016-09-25T10:42:00.633Z,8632
2016-09-25T10:43:10.975Z,8580
2016-09-25T10:44:21.276Z,8436
2016-09-25T10:45:31.290Z,8460
2016-09-25T10:46:41.614Z,8456
2016-09-25T10:47:51.598Z,8548
2016-09-25T10:49:01.918Z,8680
2016-09-25T10:50:12.220Z,8660
2016-09-25T10:51:22.507Z,8652
2016-09-25T10:52:32.813Z,8648
2016-09-25T10:53:43.119Z,8620
2016-09-25T10:54:53.093Z,8612
2016-09-25T10:56:03.094Z,8648
2016-09-25T10:57:13.067Z,8624
2016-09-25T10:58:23.048Z,8660
2016-09-25T10:59:33.054Z,8540
2016-09-25T11:00:43.043Z,8596
2016-09-25T11:01:53.023Z,8748
2016-09-25T11:03:03.325Z,8664
2016-09-25T11:04:13.607Z,8684
2016-09-25T11:05:23.939Z,8688
2016-09-25T11:06:34.258Z,8416
2016-09-25T11:07:44.541Z,8600
2016-09-25T11:08:54.830Z,8744
2016-09-25T11:10:05.126Z,8872
2016-09-25T11:11:15.436Z,8896
2016-09-25T11:12:25.432Z,8716
2016-09-25T11:13:35.434Z,8572
2016-09-25T11:14:45.729Z,8520
2016-09-25T11:15:56.049Z,8484
2016-09-25T11:17:05.746Z,8500
2016-09-25T11:18:16.051Z,8488
2016-09-25T11:19:26.032Z,8832
2016-09-25T11:20:36.341Z,9116
2016-09-25T11:21:46.651Z,9132
2016-09-25T11:22:56.948Z,9048
2016-09-25T11:24:06.930Z,9068
2016-09-25T11:25:17.252Z,9096
2016-09-25T11:26:27.542Z,8952
2016-09-25T11:27:37.526Z,8984
2016-09-25T11:28:47.837Z,9056
2016-09-25T11:29:58.372Z,9024
2016-09-25T11:31:08.670Z,9088
2016-09-25T11:32:18.973Z,9124
2016-09-25T11:33:28.967Z,9056
2016-09-25T11:34:38.968Z,8816
2016-09-25T11:35:49.267Z,8716
2016-09-25T11:36:58.954Z,8896
2016-09-25T11:38:09.243Z,8884
2016-09-25T11:39:19.543Z,8048
2016-09-25T11:40:29.528Z,6244
2016-09-25T11:41:39.844Z,8096
2016-09-25T11:42:50.159Z,7596
2016-09-25T11:44:00.463Z,9216
2016-09-25T11:45:10.770Z,9496
2016-09-25T11:46:21.066Z,9812
2016-09-25T11:47:31.360Z,9228
2016-09-25T11:48:41.670Z,9764
2016-09-25T11:49:51.967Z,9444
2016-09-25T11:51:01.974Z,9704
2016-09-25T11:52:12.273Z,9748
2016-09-25T11:53:22.575Z,10048
2016-09-25T11:54:32.879Z,8572
2016-09-25T11:55:43.181Z,10100
2016-09-25T11:56:53.166Z,5136
2016-09-25T11:58:03.462Z,5188
2016-09-25T11:59:13.448Z,10152
2016-09-25T12:00:23.755Z,10300
2016-09-25T12:01:34.044Z,10416
2016-09-25T12:02:44.345Z,10216
2016-09-25T12:03:54.334Z,10128
2016-09-25T12:05:04.325Z,10032
2016-09-25T12:06:14.628Z,8980
2016-09-25T12:07:24.304Z,9788
2016-09-25T12:08:34.590Z,9880
2016-09-25T12:09:44.902Z,9864
2016-09-25T12:10:55.203Z,9968
2016-09-25T12:12:05.505Z,10108
2016-09-25T12:13:15.190Z,10240
2016-09-25T12:14:25.504Z,10180
2016-09-25T12:15:35.501Z,10224
2016-09-25T12:16:45.804Z,10272
2016-09-25T12:17:55.802Z,10116
2016-09-25T12:19:06.119Z,9908
2016-09-25T12:20:16.132Z,9900
2016-09-25T12:21:26.443Z,9808
2016-09-25T12:22:36.129Z,9824
2016-09-25T12:23:46.116Z,9828
2016-09-25T12:24:56.115Z,9788
2016-09-25T12:26:06.110Z,9780
2016-09-25T12:27:16.113Z,9000
2016-09-25T12:28:26.099Z,9520
2016-09-25T12:29:36.399Z,9596
2016-09-25T12:30:46.382Z,9520
2016-09-25T12:31:56.693Z,9280
2016-09-25T12:33:06.679Z,9144
2016-09-25T12:34:16.977Z,9072
2016-09-25T12:35:26.982Z,8984
2016-09-25T12:36:37.271Z,8964
2016-09-25T12:37:47.577Z,8812
2016-09-25T12:38:57.548Z,8580
2016-09-25T12:40:07.862Z,8308
2016-09-25T12:41:18.164Z,8200
2016-09-25T12:42:28.484Z,8132
2016-09-25T12:43:38.470Z,8544
2016-09-25T12:44:48.766Z,8708
2016-09-25T12:45:59.083Z,8692
2016-09-25T12:47:08.461Z,8624
2016-09-25T12:48:18.756Z,8480
2016-09-25T12:49:29.057Z,8396
2016-09-25T12:50:38.740Z,8276
2016-09-25T12:51:49.057Z,7980
2016-09-25T12:52:59.373Z,8120
2016-09-25T12:54:09.711Z,7292
2016-09-25T12:55:19.703Z,7232
2016-09-25T12:56:30.059Z,3984
2016-09-25T12:57:40.377Z,3844
2016-09-25T12:58:50.370Z,3952
2016-09-25T13:00:00.662Z,4168
2016-09-25T13:01:10.958Z,4500
2016-09-25T13:02:20.946Z,5232
2016-09-25T13:03:31.241Z,4008
2016-09-25T13:04:41.224Z,3824
2016-09-25T13:05:51.536Z,3760
2016-09-25T13:07:01.872Z,3852
2016-09-25T13:08:11.850Z,3872
2016-09-25T13:09:22.160Z,3872
2016-09-25T13:10:32.477Z,4836
2016-09-25T13:11:42.156Z,3876
2016-09-25T13:12:52.460Z,3808
2016-09-25T13:14:02.451Z,3772
2016-09-25T13:15:12.780Z,3772
2016-09-25T13:16:23.090Z,4092
2016-09-25T13:17:33.390Z,7620
2016-09-25T13:18:43.689Z,7896
2016-09-25T13:19:53.364Z,7884
2016-09-25T13:21:03.672Z,7772
2016-09-25T13:22:13.999Z,7260
2016-09-25T13:23:23.999Z,4572
2016-09-25T13:24:34.293Z,3792
2016-09-25T13:25:44.286Z,3788
2016-09-25T13:26:53.975Z,3788
2016-09-25T13:28:04.283Z,4144
2016-09-25T13:29:14.263Z,7492
2016-09-25T13:30:23.952Z,6224
2016-09-25T13:31:34.273Z,3788
2016-09-25T13:32:44.600Z,3676
2016-09-25T13:33:54.900Z,3716
2016-09-25T13:35:05.203Z,3776
2016-09-25T13:36:15.502Z,3820
2016-09-25T13:37:25.820Z,3944
2016-09-25T13:38:35.802Z,4648
2016-09-25T13:39:45.799Z,7316
2016-09-25T13:40:56.112Z,7256
2016-09-25T13:42:06.439Z,7196
2016-09-25T13:43:16.736Z,7096
2016-09-25T13:44:27.045Z,7088
2016-09-25T13:45:37.041Z,7132
2016-09-25T13:46:47.332Z,7240
2016-09-25T13:47:57.640Z,7216
2016-09-25T13:49:07.941Z,7284
2016-09-25T13:50:17.923Z,7296
2016-09-25T13:51:28.225Z,7272
2016-09-25T13:52:38.525Z,7280
2016-09-25T13:53:48.507Z,7152
2016-09-25T13:54:58.811Z,7092
2016-09-25T13:56:08.803Z,7032
2016-09-25T13:57:19.113Z,6944
2016-09-25T13:58:29.104Z,6832
2016-09-25T13:59:39.101Z,6780
2016-09-25T14:00:49.399Z,6576
2016-09-25T14:01:59.390Z,6484
2016-09-25T14:03:09.382Z,6284
2016-09-25T14:04:19.794Z,6140
2016-09-25T14:05:30.110Z,6328
2016-09-25T14:06:40.427Z,6384
2016-09-25T14:07:50.742Z,6508
2016-09-25T14:09:01.055Z,6468
2016-09-25T14:10:11.051Z,6452
2016-09-25T14:11:21.037Z,6380
2016-09-25T14:12:31.340Z,6336
2016-09-25T14:13:41.631Z,6180
2016-09-25T14:14:51.934Z,5972
2016-09-25T14:16:02.265Z,5848
2016-09-25T14:17:12.583Z,5720
2016-09-25T14:18:22.890Z,5612
2016-09-25T14:19:32.917Z,5464
2016-09-25T14:20:43.218Z,5488
2016-09-25T14:21:53.516Z,5424
2016-09-25T14:23:03.824Z,4636
2016-09-25T14:24:14.125Z,5084
2016-09-25T14:25:24.111Z,5268
2016-09-25T14:26:34.101Z,5572
2016-09-25T14:27:44.098Z,5924
2016-09-25T14:28:54.390Z,5876
2016-09-25T14:30:04.379Z,5792
2016-09-25T14:31:14.372Z,5768
2016-09-25T14:32:24.685Z,5528
2016-09-25T14:33:34.987Z,5444
2016-09-25T14:34:45.272Z,5144
2016-09-25T14:35:55.581Z,5228
2016-09-25T14:37:05.887Z,5280
2016-09-25T14:38:15.576Z,5244
2016-09-25T14:39:25.882Z,5092
2016-09-25T14:40:36.188Z,5292
2016-09-25T14:41:45.612Z,5260
2016-09-25T14:42:55.594Z,5080
2016-09-25T14:44:05.898Z,4556
2016-09-25T14:45:16.200Z,4624
2016-09-25T14:46:26.529Z,4776
2016-09-25T14:47:36.832Z,4756
2016-09-25T14:48:46.817Z,4812
2016-09-25T14:49:57.138Z,4544
2016-09-25T14:51:07.129Z,4652
2016-09-25T14:52:17.438Z,4828
2016-09-25T14:53:27.740Z,4800
2016-09-25T14:54:37.779Z,4780
2016-09-25T14:55:48.098Z,4792
2016-09-25T14:56:58.391Z,4412
2016-09-25T14:58:08.692Z,4340
2016-09-25T14:59:18.991Z,4164
2016-09-25T15:00:29.289Z,4304
2016-09-25T15:01:39.597Z,4220
2016-09-25T15:02:49.892Z,4016
2016-09-25T15:03:59.590Z,3956
2016-09-25T15:05:09.900Z,4108
2016-09-25T15:06:19.874Z,4000
2016-09-25T15:07:30.176Z,4040
2016-09-25T15:08:40.477Z,3848
2016-09-25T15:09:50.764Z,3828
2016-09-25T15:11:00.780Z,3888
2016-09-25T15:12:10.469Z,3888
2016-09-25T15:13:20.761Z,3812
2016-09-25T15:14:31.047Z,3784
2016-09-25T15:15:41.356Z,3704
2016-09-25T15:16:51.678Z,3776
2016-09-25T15:18:01.983Z,3728
2016-09-25T15:19:11.990Z,3704
2016-09-25T15:20:22.302Z,3628
2016-09-25T15:21:32.304Z,3472
2016-09-25T15:22:42.603Z,3500
2016-09-25T15:23:52.929Z,3500
2016-09-25T15:25:03.265Z,3408
2016-09-25T15:26:13.269Z,3100
2016-09-25T15:27:23.282Z,3100
2016-09-25T15:28:33.580Z,3048
2016-09-25T15:29:43.897Z,3040
2016-09-25T15:30:54.199Z,3016
2016-09-25T15:32:04.495Z,3044
2016-09-25T15:33:14.803Z,3080
2016-09-25T15:34:25.115Z,3092
2016-09-25T15:35:35.407Z,3048
2016-09-25T15:36:45.462Z,2996
2016-09-25T15:37:55.439Z,2960
2016-09-25T15:39:05.457Z,2920
2016-09-25T15:40:15.751Z,2876
2016-09-25T15:41:26.057Z,2828
2016-09-25T15:42:36.363Z,2780
2016-09-25T15:43:46.058Z,2736
2016-09-25T15:44:56.343Z,2680
2016-09-25T15:46:06.658Z,2616
2016-09-25T15:47:16.653Z,2552
2016-09-25T15:48:26.651Z,2492
2016-09-25T15:49:37.171Z,2432
2016-09-25T15:50:47.469Z,2372
2016-09-25T15:51:57.477Z,2308
2016-09-25T15:53:07.172Z,2248
2016-09-25T15:54:17.471Z,2188
2016-09-25T15:55:27.789Z,2128
2016-09-25T15:56:38.080Z,2068
2016-09-25T15:57:48.383Z,1988
2016-09-25T15:58:58.670Z,1900
2016-09-25T16:00:08.669Z,1828
2016-09-25T16:01:18.989Z,1776
2016-09-25T16:02:28.962Z,1732
2016-09-25T16:03:39.277Z,1676
2016-09-25T16:04:49.271Z,1620
2016-09-25T16:05:59.566Z,1560
2016-09-25T16:07:09.859Z,1508
2016-09-25T16:08:19.852Z,1464
2016-09-25T16:09:30.146Z,1420
2016-09-25T16:10:40.175Z,1372
2016-09-25T16:11:50.532Z,1320
2016-09-25T16:13:00.548Z,1272
2016-09-25T16:14:10.922Z,1216
2016-09-25T16:15:21.235Z,1156
2016-09-25T16:16:31.536Z,1092
2016-09-25T16:17:41.834Z,1040
2016-09-25T16:18:52.142Z,984
2016-09-25T16:20:02.156Z,936
2016-09-25T16:21:12.459Z,888
2016-09-25T16:22:22.753Z,844
2016-09-25T16:23:32.742Z,804
2016-09-25T16:24:42.746Z,756
2016-09-25T16:25:53.066Z,720
2016-09-25T16:27:03.373Z,676
2016-09-25T16:28:13.386Z,632
2016-09-25T16:29:23.723Z,588
2016-09-25T16:30:34.027Z,548